Latest  Newer  Older  Last 2 hours animation  Current image  Latest image 
Rain/snow radar  Infrared sat images 
Real-time lightning map

All time is UTC (add 2 hours to UTC in wintertime, 3 hours to UTC in DST for Latvia local time)

2019/12/16 06:20 EVRA 160620Z 24009KT 190V280 9999 FEW008 SCT013CB BKN019 05/03 Q0996 R18/290195 NOSIG
2019/12/16 06:20 EVLA 160620Z AUTO 26015G27KT 240V300 9999 BKN021/// BKN024/// OVC028/// 06/03 Q1002
2019/12/16 06:20 EVVA 160620Z AUTO 29019G35KT 9999 BKN022 OVC030 06/03 Q0998
2019/12/16 06:20 EYKA 160620Z 25021G32KT 9999 BKN026 05/01 Q1005 R08/290095
2019/12/16 06:20 EYPA 160620Z 28011G22KT 240V320 9999 BKN025 06/02 Q1004 R19/2///95
2019/12/16 06:20 EYSA 160620Z 24016KT 9999 BKN017 BKN023 04/03 Q1001 R14L/29//95 R14R/29//95 WHT NOSIG
2019/12/16 06:20 EYVI 160620Z 23015KT CAVOK 02/00 Q1006 R19/2/0295 NOSIG
2019/12/16 05:50 EEKA 160550Z VRB02KT 9999 -RA FEW009 SCT019 BKN030 02/02 Q0992
2019/12/16 05:50 EEKE 160550Z 30003KT 260V350 9999 -RA SCT011 BKN019 OVC023 03/03 Q0992
2019/12/16 05:50 EEPU 160550Z 24002KT 1600 -RA BR OVC014 02/02 Q0991
2019/12/16 06:20 EETN 160620Z VRB02KT 9999 SCT005 BKN015 02/01 Q0992 R08/290195 TEMPO 3000 DZ BR
2019/12/16 05:50 EETU 160550Z AUTO 18006KT 8000 DZ BKN009/// OVC018/// 03/02 Q0991
   RIGA AIRPORT     EVRA               56 55N  023 58E   10   X     T          6 LV
   LIEPAJA INTL     EVLA        26406  56 31N  021 06E    4   X                8 LV
   VENTPILS         EVVA               57 21N  021 33E    6   X                8 LV
   KAUNAS           EYKA               54 54N  023 55E   77   X     T          6 LT
   PALANGA INTL     EYPA               55 55N  021 03E   10   X                6 LT
   SIAULIAI INTL    EYSA               55 54N  023 24E  135   X     T          6 LT
   VILNIUS INTL     EYVI        26730  54 38N  025 17E  197   X     T          6 LT
   KARDLA           EEKA        26116  58 59N  022 50E    4   X                8 EE
   KURESSAARE       EEKE               58 14N  022 31E    4   X                8 EE
   PARNU            EEPU               58 25N  024 28E   14   X                8 EE
   TALLINN          EETN        26038  59 24N  024 49E   40   X     T          8 EE
   TARTU            EETU               58 19N  026 41E   67   X                8 EE

cloud coverage image from sat24.com and METAR data from weather.noaa.gov